sensor_id;sensor_type;location;lat;lon;timestamp;pressure;altitude;pressure_sealevel;temperature;humidity
24666;BME280;29726;53.532;-1.478;2023-02-13T00:01:31;102432.38;;;13.27;100.00
24666;BME280;29726;53.532;-1.478;2023-02-13T00:04:15;102430.53;;;13.21;100.00
24666;BME280;29726;53.532;-1.478;2023-02-13T00:06:59;102417.41;;;13.18;100.00
24666;BME280;29726;53.532;-1.478;2023-02-13T00:09:43;102424.06;;;13.24;100.00
24666;BME280;29726;53.532;-1.478;2023-02-13T00:12:27;102428.09;;;13.23;100.00
24666;BME280;29726;53.532;-1.478;2023-02-13T00:15:11;102415.03;;;13.17;100.00
24666;BME280;29726;53.532;-1.478;2023-02-13T00:17:55;102428.53;;;13.22;100.00
24666;BME280;29726;53.532;-1.478;2023-02-13T00:20:39;102418.97;;;13.19;100.00
24666;BME280;29726;53.532;-1.478;2023-02-13T00:23:23;102415.38;;;13.19;100.00
24666;BME280;29726;53.532;-1.478;2023-02-13T00:26:11;102409.44;;;13.17;100.00
24666;BME280;29726;53.532;-1.478;2023-02-13T00:28:56;102404.38;;;13.12;100.00
24666;BME280;29726;53.532;-1.478;2023-02-13T00:31:40;102406.28;;;13.15;100.00
24666;BME280;29726;53.532;-1.478;2023-02-13T00:34:24;102411.88;;;13.15;100.00
24666;BME280;29726;53.532;-1.478;2023-02-13T00:37:08;102402.31;;;13.12;100.00
24666;BME280;29726;53.532;-1.478;2023-02-13T00:39:52;102373.28;;;12.87;100.00
24666;BME280;29726;53.532;-1.478;2023-02-13T00:42:36;102402.41;;;13.09;100.00
24666;BME280;29726;53.532;-1.478;2023-02-13T00:45:20;102415.94;;;13.14;100.00
24666;BME280;29726;53.532;-1.478;2023-02-13T00:48:05;102408.00;;;13.09;100.00
24666;BME280;29726;53.532;-1.478;2023-02-13T00:50:49;102411.16;;;13.11;100.00
24666;BME280;29726;53.532;-1.478;2023-02-13T00:53:36;102411.16;;;13.11;100.00
24666;BME280;29726;53.532;-1.478;2023-02-13T00:56:20;102394.25;;;12.98;100.00
24666;BME280;29726;53.532;-1.478;2023-02-13T00:59:05;102421.63;;;13.10;100.00
24666;BME280;29726;53.532;-1.478;2023-02-13T01:01:49;102412.94;;;13.05;100.00
24666;BME280;29726;53.532;-1.478;2023-02-13T01:04:33;102398.91;;;13.05;100.00
24666;BME280;29726;53.532;-1.478;2023-02-13T01:07:17;102389.03;;;13.00;100.00
24666;BME280;29726;53.532;-1.478;2023-02-13T01:10:00;102397.88;;;12.99;100.00
24666;BME280;29726;53.532;-1.478;2023-02-13T01:12:45;102394.25;;;12.98;100.00
24666;BME280;29726;53.532;-1.478;2023-02-13T01:15:29;102406.53;;;13.04;100.00
24666;BME280;29726;53.532;-1.478;2023-02-13T01:18:18;102403.41;;;13.02;100.00
24666;BME280;29726;53.532;-1.478;2023-02-13T01:21:05;102402.94;;;13.04;100.00
24666;BME280;29726;53.532;-1.478;2023-02-13T01:23:49;102400.66;;;12.99;100.00
24666;BME280;29726;53.532;-1.478;2023-02-13T01:26:34;102393.03;;;12.99;100.00
24666;BME280;29726;53.532;-1.478;2023-02-13T01:29:18;102391.03;;;13.00;100.00
24666;BME280;29726;53.532;-1.478;2023-02-13T01:32:02;102385.06;;;12.98;100.00
24666;BME280;29726;53.532;-1.478;2023-02-13T01:34:47;102396.63;;;13.00;100.00
24666;BME280;29726;53.532;-1.478;2023-02-13T01:37:31;102388.22;;;13.00;100.00
24666;BME280;29726;53.532;-1.478;2023-02-13T01:40:16;102387.53;;;12.96;100.00
24666;BME280;29726;53.532;-1.478;2023-02-13T01:43:00;102380.00;;;12.93;100.00
24666;BME280;29726;53.532;-1.478;2023-02-13T01:45:47;102395.47;;;12.97;100.00
24666;BME280;29726;53.532;-1.478;2023-02-13T01:48:33;102384.28;;;12.97;100.00
24666;BME280;29726;53.532;-1.478;2023-02-13T01:51:26;102401.09;;;12.97;100.00
24666;BME280;29726;53.532;-1.478;2023-02-13T01:54:21;102385.16;;;12.94;100.00
24666;BME280;29726;53.532;-1.478;2023-02-13T01:57:15;102401.53;;;12.96;100.00
24666;BME280;29726;53.532;-1.478;2023-02-13T02:00:06;102397.59;;;12.93;100.00
24666;BME280;29726;53.532;-1.478;2023-02-13T02:02:55;102406.34;;;12.95;100.00
24666;BME280;29726;53.532;-1.478;2023-02-13T02:05:41;102397.94;;;12.95;100.00
24666;BME280;29726;53.532;-1.478;2023-02-13T02:08:26;102393.13;;;12.96;100.00
24666;BME280;29726;53.532;-1.478;2023-02-13T02:11:35;102389.53;;;12.95;100.00
24666;BME280;29726;53.532;-1.478;2023-02-13T02:14:21;102387.59;;;12.92;100.00
24666;BME280;29726;53.532;-1.478;2023-02-13T02:17:05;102370.13;;;12.85;100.00
24666;BME280;29726;53.532;-1.478;2023-02-13T02:23:16;102369.97;;;12.92;100.00
24666;BME280;29726;53.532;-1.478;2023-02-13T02:26:19;102369.97;;;12.92;100.00
24666;BME280;29726;53.532;-1.478;2023-02-13T02:36:08;102336.88;;;12.71;100.00
24666;BME280;29726;53.532;-1.478;2023-02-13T02:39:13;102358.84;;;12.88;100.00
24666;BME280;29726;53.532;-1.478;2023-02-13T02:42:30;102357.63;;;12.89;100.00
24666;BME280;29726;53.532;-1.478;2023-02-13T02:45:23;102349.22;;;12.89;100.00
24666;BME280;29726;53.532;-1.478;2023-02-13T02:51:24;102352.44;;;12.88;100.00
24666;BME280;29726;53.532;-1.478;2023-02-13T02:54:21;102341.13;;;12.75;100.00
24666;BME280;29726;53.532;-1.478;2023-02-13T02:57:29;102356.47;;;12.87;100.00
24666;BME280;29726;53.532;-1.478;2023-02-13T03:00:36;102344.91;;;12.85;100.00
24666;BME280;29726;53.532;-1.478;2023-02-13T03:03:41;102335.81;;;12.81;100.00
24666;BME280;29726;53.532;-1.478;2023-02-13T03:06:52;102346.47;;;12.86;100.00
24666;BME280;29726;53.532;-1.478;2023-02-13T03:09:43;102331.88;;;12.78;100.00
24666;BME280;29726;53.532;-1.478;2023-02-13T03:12:51;102344.47;;;12.86;100.00
24666;BME280;29726;53.532;-1.478;2023-02-13T03:15:58;102343.69;;;12.86;100.00
24666;BME280;29726;53.532;-1.478;2023-02-13T03:19:02;102321.44;;;12.79;100.00
24666;BME280;29726;53.532;-1.478;2023-02-13T03:28:29;102334.22;;;12.80;100.00
24666;BME280;29726;53.532;-1.478;2023-02-13T03:32:10;102334.94;;;12.84;100.00
24666;BME280;29726;53.532;-1.478;2023-02-13T03:34:55;102327.75;;;12.83;100.00
24666;BME280;29726;53.532;-1.478;2023-02-13T03:38:13;102324.16;;;12.82;100.00
24666;BME280;29726;53.532;-1.478;2023-02-13T03:41:24;102318.28;;;12.77;100.00
24666;BME280;29726;53.532;-1.478;2023-02-13T03:47:13;102309.13;;;12.76;100.00
24666;BME280;29726;53.532;-1.478;2023-02-13T03:49:57;102323.03;;;12.80;100.00
24666;BME280;29726;53.532;-1.478;2023-02-13T03:53:04;102322.59;;;12.81;100.00
24666;BME280;29726;53.532;-1.478;2023-02-13T03:55:50;102317.94;;;12.75;100.00
24666;BME280;29726;53.532;-1.478;2023-02-13T03:58:56;102323.22;;;12.73;100.00
24666;BME280;29726;53.532;-1.478;2023-02-13T04:02:13;102322.25;;;12.79;100.00
24666;BME280;29726;53.532;-1.478;2023-02-13T04:05:16;102321.00;;;12.80;100.00
24666;BME280;29726;53.532;-1.478;2023-02-13T04:08:03;102312.00;;;12.73;100.00
24666;BME280;29726;53.532;-1.478;2023-02-13T04:13:58;102332.66;;;12.79;100.00
24666;BME280;29726;53.532;-1.478;2023-02-13T04:16:46;102274.94;;;12.49;100.00
24666;BME280;29726;53.532;-1.478;2023-02-13T04:19:32;102323.91;;;12.77;100.00
24666;BME280;29726;53.532;-1.478;2023-02-13T04:22:17;102318.28;;;12.77;100.00
24666;BME280;29726;53.532;-1.478;2023-02-13T04:25:02;102272.59;;;12.48;100.00
24666;BME280;29726;53.532;-1.478;2023-02-13T04:27:46;102305.41;;;12.63;100.00
24666;BME280;29726;53.532;-1.478;2023-02-13T04:30:30;102297.78;;;12.64;100.00
24666;BME280;29726;53.532;-1.478;2023-02-13T04:33:14;102312.00;;;12.73;100.00
24666;BME280;29726;53.532;-1.478;2023-02-13T04:35:59;102315.91;;;12.75;100.00
24666;BME280;29726;53.532;-1.478;2023-02-13T04:38:43;102305.69;;;12.69;100.00
24666;BME280;29726;53.532;-1.478;2023-02-13T04:41:28;102316.03;;;12.72;100.00
24666;BME280;29726;53.532;-1.478;2023-02-13T04:44:12;102307.28;;;12.70;100.00
24666;BME280;29726;53.532;-1.478;2023-02-13T04:46:56;102301.31;;;12.68;100.00
24666;BME280;29726;53.532;-1.478;2023-02-13T04:49:40;102309.63;;;12.71;100.00
24666;BME280;29726;53.532;-1.478;2023-02-13T04:52:24;102318.47;;;12.70;100.00
24666;BME280;29726;53.532;-1.478;2023-02-13T04:55:08;102285.66;;;12.54;100.00
24666;BME280;29726;53.532;-1.478;2023-02-13T04:57:53;102314.44;;;12.71;100.00
24666;BME280;29726;53.532;-1.478;2023-02-13T05:00:37;102305.69;;;12.69;100.00
24666;BME280;29726;53.532;-1.478;2023-02-13T05:03:21;102304.19;;;12.64;100.00
24666;BME280;29726;53.532;-1.478;2023-02-13T05:06:05;102301.66;;;12.70;100.00
24666;BME280;29726;53.532;-1.478;2023-02-13T05:08:49;102296.22;;;12.63;100.00
24666;BME280;29726;53.532;-1.478;2023-02-13T05:11:33;102302.53;;;12.67;100.00
24666;BME280;29726;53.532;-1.478;2023-02-13T05:14:17;102299.41;;;12.65;100.00
24666;BME280;29726;53.532;-1.478;2023-02-13T05:17:02;102292.63;;;12.62;100.00
24666;BME280;29726;53.532;-1.478;2023-02-13T05:19:45;102297.44;;;12.62;100.00
24666;BME280;29726;53.532;-1.478;2023-02-13T05:22:29;102291.84;;;12.62;100.00
24666;BME280;29726;53.532;-1.478;2023-02-13T05:25:33;102281.97;;;12.57;100.00
24666;BME280;29726;53.532;-1.478;2023-02-13T05:28:17;102284.22;;;12.62;100.00
24666;BME280;29726;53.532;-1.478;2023-02-13T05:31:20;102249.28;;;12.35;100.00
24666;BME280;29726;53.532;-1.478;2023-02-13T05:34:05;102287.13;;;12.59;100.00
24666;BME280;29726;53.532;-1.478;2023-02-13T05:36:49;102273.56;;;12.57;100.00
24666;BME280;29726;53.532;-1.478;2023-02-13T05:39:33;102278.72;;;12.59;100.00
24666;BME280;29726;53.532;-1.478;2023-02-13T05:42:17;102280.28;;;12.60;100.00
24666;BME280;29726;53.532;-1.478;2023-02-13T05:45:01;102291.41;;;12.63;100.00
24666;BME280;29726;53.532;-1.478;2023-02-13T05:47:46;102281.09;;;12.60;100.00
24666;BME280;29726;53.532;-1.478;2023-02-13T05:50:30;102281.16;;;12.57;100.00
24666;BME280;29726;53.532;-1.478;2023-02-13T05:53:14;102281.50;;;12.59;100.00
24666;BME280;29726;53.532;-1.478;2023-02-13T05:55:57;102294.63;;;12.62;100.00
24666;BME280;29726;53.532;-1.478;2023-02-13T05:58:42;102279.59;;;12.56;100.00
24666;BME280;29726;53.532;-1.478;2023-02-13T06:01:26;102293.19;;;12.57;100.00
24666;BME280;29726;53.532;-1.478;2023-02-13T06:04:10;102287.13;;;12.59;100.00
24666;BME280;29726;53.532;-1.478;2023-02-13T06:06:54;102280.41;;;12.56;100.00
24666;BME280;29726;53.532;-1.478;2023-02-13T06:09:38;102275.22;;;12.55;100.00
24666;BME280;29726;53.532;-1.478;2023-02-13T06:12:22;102272.06;;;12.53;100.00
24666;BME280;29726;53.532;-1.478;2023-02-13T06:15:06;102282.38;;;12.56;100.00
24666;BME280;29726;53.532;-1.478;2023-02-13T06:17:50;102268.84;;;12.54;100.00
24666;BME280;29726;53.532;-1.478;2023-02-13T06:20:35;102278.81;;;12.55;100.00
24666;BME280;29726;53.532;-1.478;2023-02-13T06:23:19;102277.31;;;12.51;100.00
24666;BME280;29726;53.532;-1.478;2023-02-13T06:26:05;102277.31;;;12.51;100.00
24666;BME280;29726;53.532;-1.478;2023-02-13T06:28:50;102264.25;;;12.44;100.00
24666;BME280;29726;53.532;-1.478;2023-02-13T06:31:34;102273.28;;;12.52;100.00
24666;BME280;29726;53.532;-1.478;2023-02-13T06:34:18;102292.38;;;12.57;100.00
24666;BME280;29726;53.532;-1.478;2023-02-13T06:37:02;102267.75;;;12.48;100.00
24666;BME280;29726;53.532;-1.478;2023-02-13T06:39:46;102280.47;;;12.53;100.00
24666;BME280;29726;53.532;-1.478;2023-02-13T06:42:30;102278.09;;;12.51;100.00
24666;BME280;29726;53.532;-1.478;2023-02-13T06:45:14;102281.28;;;12.53;100.00
24666;BME280;29726;53.532;-1.478;2023-02-13T06:47:58;102277.31;;;12.51;100.00
24666;BME280;29726;53.532;-1.478;2023-02-13T06:50:42;102263.16;;;12.42;100.00
24666;BME280;29726;53.532;-1.478;2023-02-13T06:53:27;102274.53;;;12.51;100.00
24666;BME280;29726;53.532;-1.478;2023-02-13T06:56:11;102279.78;;;12.49;100.00
24666;BME280;29726;53.532;-1.478;2023-02-13T06:58:55;102288.94;;;12.49;100.00
24666;BME280;29726;53.532;-1.478;2023-02-13T07:01:39;102282.22;;;12.47;100.00
24666;BME280;29726;53.532;-1.478;2023-02-13T07:04:23;102297.69;;;12.51;100.00
24666;BME280;29726;53.532;-1.478;2023-02-13T07:07:08;102281.53;;;12.43;100.00
24666;BME280;29726;53.532;-1.478;2023-02-13T07:09:52;102290.63;;;12.47;100.00
24666;BME280;29726;53.532;-1.478;2023-02-13T07:12:36;102287.38;;;12.48;100.00
24666;BME280;29726;53.532;-1.478;2023-02-13T07:15:20;102280.72;;;12.42;100.00
24666;BME280;29726;53.532;-1.478;2023-02-13T07:18:04;102290.19;;;12.48;100.00
24666;BME280;29726;53.532;-1.478;2023-02-13T07:20:48;102290.28;;;12.45;100.00
24666;BME280;29726;53.532;-1.478;2023-02-13T07:23:33;102281.59;;;12.39;100.00
24666;BME280;29726;53.532;-1.478;2023-02-13T07:26:17;102287.56;;;12.41;100.00
24666;BME280;29726;53.532;-1.478;2023-02-13T07:29:01;102298.59;;;12.48;100.00
24666;BME280;29726;53.532;-1.478;2023-02-13T07:31:49;102293.09;;;12.45;100.00
24666;BME280;29726;53.532;-1.478;2023-02-13T07:34:32;102282.31;;;12.43;100.00
24666;BME280;29726;53.532;-1.478;2023-02-13T07:37:17;102285.44;;;12.45;100.00
24666;BME280;29726;53.532;-1.478;2023-02-13T07:40:01;102279.97;;;12.42;100.00
24666;BME280;29726;53.532;-1.478;2023-02-13T07:42:47;102273.91;;;12.43;100.00
24666;BME280;29726;53.532;-1.478;2023-02-13T07:45:31;102274.34;;;12.42;100.00
24666;BME280;29726;53.532;-1.478;2023-02-13T07:48:15;102283.44;;;12.46;100.00
24666;BME280;29726;53.532;-1.478;2023-02-13T07:51:00;102279.50;;;12.43;100.00
24666;BME280;29726;53.532;-1.478;2023-02-13T07:53:45;102267.94;;;12.41;100.00
24666;BME280;29726;53.532;-1.478;2023-02-13T07:56:29;102275.47;;;12.44;100.00
24666;BME280;29726;53.532;-1.478;2023-02-13T07:59:13;102279.06;;;12.45;100.00
24666;BME280;29726;53.532;-1.478;2023-02-13T08:01:56;102274.34;;;12.42;100.00
24666;BME280;29726;53.532;-1.478;2023-02-13T08:04:41;102281.06;;;12.44;100.00
24666;BME280;29726;53.532;-1.478;2023-02-13T08:07:32;102287.47;;;12.45;100.00
24666;BME280;29726;53.532;-1.478;2023-02-13T08:10:16;102270.66;;;12.45;100.00
24666;BME280;29726;53.532;-1.478;2023-02-13T08:13:19;102274.78;;;12.40;100.00
24666;BME280;29726;53.532;-1.478;2023-02-13T08:16:03;102260.84;;;12.37;100.00
24666;BME280;29726;53.532;-1.478;2023-02-13T08:18:47;102268.28;;;12.43;100.00
24666;BME280;29726;53.532;-1.478;2023-02-13T08:21:32;102254.81;;;12.38;100.00
24666;BME280;29726;53.532;-1.478;2023-02-13T08:24:18;102250.78;;;12.39;100.00
24666;BME280;29726;53.532;-1.478;2023-02-13T08:27:02;102252.72;;;12.42;100.00
24666;BME280;29726;53.532;-1.478;2023-02-13T08:29:47;102241.16;;;12.40;100.00
24666;BME280;29726;53.532;-1.478;2023-02-13T08:32:31;102239.66;;;12.36;100.00
24666;BME280;29726;53.532;-1.478;2023-02-13T08:35:16;102239.13;;;12.41;100.00
24666;BME280;29726;53.532;-1.478;2023-02-13T08:38:04;102247.47;;;12.44;100.00
24666;BME280;29726;53.532;-1.478;2023-02-13T08:40:48;102228.91;;;12.34;100.00
24666;BME280;29726;53.532;-1.478;2023-02-13T08:43:32;102221.13;;;12.42;100.00
24666;BME280;29726;53.532;-1.478;2023-02-13T08:46:16;102230.84;;;12.37;100.00
24666;BME280;29726;53.532;-1.478;2023-02-13T08:49:00;102230.50;;;12.35;100.00
24666;BME280;29726;53.532;-1.478;2023-02-13T08:51:44;102223.03;;;12.29;100.00
24666;BME280;29726;53.532;-1.478;2023-02-13T08:54:29;102247.72;;;12.34;100.00
24666;BME280;29726;53.532;-1.478;2023-02-13T08:57:13;102252.38;;;12.40;100.00
24666;BME280;29726;53.532;-1.478;2023-02-13T08:59:57;102250.00;;;12.39;100.00
24666;BME280;29726;53.532;-1.478;2023-02-13T09:02:41;102254.91;;;12.35;100.00
24666;BME280;29726;53.532;-1.478;2023-02-13T09:05:26;102248.94;;;12.33;100.00
24666;BME280;29726;53.532;-1.478;2023-02-13T09:08:10;102263.75;;;12.33;100.00
24666;BME280;29726;53.532;-1.478;2023-02-13T09:10:59;102274.34;;;12.42;100.00
24666;BME280;29726;53.532;-1.478;2023-02-13T09:13:44;102224.72;;;12.10;100.00
24666;BME280;29726;53.532;-1.478;2023-02-13T09:16:28;102279.97;;;12.42;100.00
24666;BME280;29726;53.532;-1.478;2023-02-13T09:19:12;102268.38;;;12.40;100.00
24666;BME280;29726;53.532;-1.478;2023-02-13T09:21:56;102264.34;;;12.41;100.00
24666;BME280;29726;53.532;-1.478;2023-02-13T09:24:40;102267.25;;;12.37;100.00
24666;BME280;29726;53.532;-1.478;2023-02-13T09:27:24;102260.34;;;12.42;100.00
24666;BME280;29726;53.532;-1.478;2023-02-13T09:30:09;102268.75;;;12.42;100.00
24666;BME280;29726;53.532;-1.478;2023-02-13T09:32:54;102264.72;;;12.43;100.00
24666;BME280;29726;53.532;-1.478;2023-02-13T09:35:38;102254.38;;;12.40;100.00
24666;BME280;29726;53.532;-1.478;2023-02-13T09:38:24;102254.38;;;12.40;100.00
24666;BME280;29726;53.532;-1.478;2023-02-13T09:41:14;102259.97;;;12.40;100.00
24666;BME280;29726;53.532;-1.478;2023-02-13T09:44:41;102269.09;;;12.44;100.00
24666;BME280;29726;53.532;-1.478;2023-02-13T09:47:33;102254.91;;;12.35;100.00
24666;BME280;29726;53.532;-1.478;2023-02-13T09:50:30;102260.25;;;12.45;100.00
24666;BME280;29726;53.532;-1.478;2023-02-13T09:53:23;102213.41;;;12.14;100.00
24666;BME280;29726;53.532;-1.478;2023-02-13T09:56:26;102205.34;;;12.16;100.00
24666;BME280;29726;53.532;-1.478;2023-02-13T10:14:00;102255.69;;;12.51;100.00
24666;BME280;29726;53.532;-1.478;2023-02-13T10:17:16;102253.25;;;12.53;100.00
24666;BME280;29726;53.532;-1.478;2023-02-13T10:23:25;102265.94;;;12.58;100.00
24666;BME280;29726;53.532;-1.478;2023-02-13T10:26:23;102252.72;;;12.58;100.00
24666;BME280;29726;53.532;-1.478;2023-02-13T10:35:29;102248.34;;;12.57;100.00
24666;BME280;29726;53.532;-1.478;2023-02-13T10:38:16;102222.44;;;12.37;100.00
24666;BME280;29726;53.532;-1.478;2023-02-13T10:41:23;102265.31;;;12.66;100.00
24666;BME280;29726;53.532;-1.478;2023-02-13T10:47:42;102256.47;;;12.68;100.00
24666;BME280;29726;53.532;-1.478;2023-02-13T10:50:40;102240.28;;;12.59;100.00
24666;BME280;29726;53.532;-1.478;2023-02-13T10:53:51;102252.78;;;12.71;100.00
24666;BME280;29726;53.532;-1.478;2023-02-13T11:02:30;102213.78;;;12.48;100.00
24666;BME280;29726;53.532;-1.478;2023-02-13T11:05:19;102239.81;;;12.77;100.00
24666;BME280;29726;53.532;-1.478;2023-02-13T11:08:25;102240.50;;;12.81;100.00
24666;BME280;29726;53.532;-1.478;2023-02-13T11:11:28;102239.75;;;12.80;100.00
24666;BME280;29726;53.532;-1.478;2023-02-13T11:14:19;102230.09;;;12.81;100.00
24666;BME280;29726;53.532;-1.478;2023-02-13T11:17:06;102233.94;;;12.71;100.00
24666;BME280;29726;53.532;-1.478;2023-02-13T11:20:02;102213.31;;;12.49;100.00
24666;BME280;29726;53.532;-1.478;2023-02-13T11:22:48;102190.75;;;12.24;100.00
24666;BME280;29726;53.532;-1.478;2023-02-13T11:25:32;102196.28;;;12.28;100.00
24666;BME280;29726;53.532;-1.478;2023-02-13T11:28:20;102188.81;;;12.21;100.00
24666;BME280;29726;53.532;-1.478;2023-02-13T11:31:28;102185.41;;;12.30;100.00
24666;BME280;29726;53.532;-1.478;2023-02-13T11:37:14;102186.28;;;12.43;100.00
24666;BME280;29726;53.532;-1.478;2023-02-13T11:39:59;102175.94;;;12.40;100.00
24666;BME280;29726;53.532;-1.478;2023-02-13T11:43:07;102164.75;;;12.40;100.00
24666;BME280;29726;53.532;-1.478;2023-02-13T11:46:03;102194.66;;;12.59;100.00
24666;BME280;29726;53.532;-1.478;2023-02-13T11:49:03;102182.69;;;12.58;100.00
24666;BME280;29726;53.532;-1.478;2023-02-13T11:54:37;102185.97;;;12.69;100.00
24666;BME280;29726;53.532;-1.478;2023-02-13T12:06:11;102182.53;;;12.94;100.00
24666;BME280;29726;53.532;-1.478;2023-02-13T12:09:01;102174.97;;;12.91;100.00
24666;BME280;29726;53.532;-1.478;2023-02-13T12:11:48;102179.84;;;13.03;100.00
24666;BME280;29726;53.532;-1.478;2023-02-13T12:14:39;102166.06;;;12.96;100.00
24666;BME280;29726;53.532;-1.478;2023-02-13T12:17:27;102178.97;;;13.06;100.00
24666;BME280;29726;53.532;-1.478;2023-02-13T12:20:15;102159.25;;;13.09;100.00
24666;BME280;29726;53.532;-1.478;2023-02-13T12:25:53;102158.72;;;13.27;100.00
24666;BME280;29726;53.532;-1.478;2023-02-13T12:32:03;102157.97;;;13.38;100.00
24666;BME280;29726;53.532;-1.478;2023-02-13T12:44:49;102152.06;;;13.74;100.00
24666;BME280;29726;53.532;-1.478;2023-02-13T12:54:01;102130.34;;;13.99;100.00
24666;BME280;29726;53.532;-1.478;2023-02-13T13:09:34;102128.22;;;14.50;100.00
24666;BME280;29726;53.532;-1.478;2023-02-13T13:15:54;102117.91;;;14.68;100.00
24666;BME280;29726;53.532;-1.478;2023-02-13T13:26:11;102107.22;;;14.97;100.00
24666;BME280;29726;53.532;-1.478;2023-02-13T13:28:59;102098.94;;;15.02;100.00
24666;BME280;29726;53.532;-1.478;2023-02-13T13:31:53;102095.41;;;15.11;100.00
24666;BME280;29726;53.532;-1.478;2023-02-13T13:34:38;102097.19;;;15.17;100.00
24666;BME280;29726;53.532;-1.478;2023-02-13T13:40:38;102107.00;;;15.34;100.00
24666;BME280;29726;53.532;-1.478;2023-02-13T13:44:02;102093.38;;;15.33;100.00
24666;BME280;29726;53.532;-1.478;2023-02-13T13:47:02;102107.22;;;15.49;100.00
24666;BME280;29726;53.532;-1.478;2023-02-13T13:49:52;102106.94;;;15.56;100.00
24666;BME280;29726;53.532;-1.478;2023-02-13T13:52:38;102099.44;;;15.62;100.00
24666;BME280;29726;53.532;-1.478;2023-02-13T13:55:58;102092.56;;;15.63;100.00
24666;BME280;29726;53.532;-1.478;2023-02-13T13:58:44;102105.75;;;15.75;100.00
24666;BME280;29726;53.532;-1.478;2023-02-13T14:01:30;102081.84;;;15.79;100.00
24666;BME280;29726;53.532;-1.478;2023-02-13T14:04:37;102092.00;;;15.86;100.00
24666;BME280;29726;53.532;-1.478;2023-02-13T14:07:24;102095.47;;;15.90;100.00
24666;BME280;29726;53.532;-1.478;2023-02-13T14:13:28;102090.81;;;16.05;100.00
24666;BME280;29726;53.532;-1.478;2023-02-13T14:16:39;102087.69;;;16.12;100.00
24666;BME280;29726;53.532;-1.478;2023-02-13T14:19:36;102073.75;;;16.17;100.00
24666;BME280;29726;53.532;-1.478;2023-02-13T14:22:33;102074.69;;;16.23;100.00
24666;BME280;29726;53.532;-1.478;2023-02-13T14:25:23;102068.47;;;16.28;100.00
24666;BME280;29726;53.532;-1.478;2023-02-13T14:28:25;102059.81;;;16.32;100.00
24666;BME280;29726;53.532;-1.478;2023-02-13T14:31:32;102076.78;;;16.41;100.00
24666;BME280;29726;53.532;-1.478;2023-02-13T14:34:20;102061.28;;;16.45;100.00
24666;BME280;29726;53.532;-1.478;2023-02-13T14:43:14;102081.50;;;16.62;100.00
24666;BME280;29726;53.532;-1.478;2023-02-13T14:49:05;102058.13;;;16.61;100.00
24666;BME280;29726;53.532;-1.478;2023-02-13T14:52:03;102079.56;;;16.76;100.00
24666;BME280;29726;53.532;-1.478;2023-02-13T14:54:50;102065.16;;;16.74;100.00
24666;BME280;29726;53.532;-1.478;2023-02-13T14:57:41;102064.22;;;16.77;100.00
24666;BME280;29726;53.532;-1.478;2023-02-13T15:00:43;102063.28;;;16.80;100.00
24666;BME280;29726;53.532;-1.478;2023-02-13T15:06:25;102067.97;;;16.92;100.00
24666;BME280;29726;53.532;-1.478;2023-02-13T15:09:27;102074.06;;;17.00;100.00
24666;BME280;29726;53.532;-1.478;2023-02-13T15:12:44;102057.91;;;17.00;100.00
24666;BME280;29726;53.532;-1.478;2023-02-13T15:15:32;102059.47;;;17.01;100.00
24666;BME280;29726;53.532;-1.478;2023-02-13T15:18:20;102031.78;;;16.82;100.00
24666;BME280;29726;53.532;-1.478;2023-02-13T15:21:05;102058.34;;;17.08;100.00
24666;BME280;29726;53.532;-1.478;2023-02-13T15:23:52;102064.75;;;17.17;100.00
24666;BME280;29726;53.532;-1.478;2023-02-13T15:26:40;102052.50;;;17.20;100.00
24666;BME280;29726;53.532;-1.478;2023-02-13T15:29:24;102047.22;;;17.13;100.00
24666;BME280;29726;53.532;-1.478;2023-02-13T15:32:23;102045.31;;;17.19;100.00
24666;BME280;29726;53.532;-1.478;2023-02-13T15:35:23;102055.00;;;17.27;100.00
24666;BME280;29726;53.532;-1.478;2023-02-13T15:38:30;102054.81;;;17.31;100.00
24666;BME280;29726;53.532;-1.478;2023-02-13T15:41:21;102044.50;;;17.28;100.00
24666;BME280;29726;53.532;-1.478;2023-02-13T15:44:06;102050.91;;;17.28;100.00
24666;BME280;29726;53.532;-1.478;2023-02-13T15:46:52;102065.19;;;17.34;100.00
24666;BME280;29726;53.532;-1.478;2023-02-13T15:49:38;102055.00;;;17.36;100.00
24666;BME280;29726;53.532;-1.478;2023-02-13T15:52:35;102053.44;;;17.35;100.00
24666;BME280;29726;53.532;-1.478;2023-02-13T15:55:23;102055.31;;;17.29;100.00
24666;BME280;29726;53.532;-1.478;2023-02-13T15:58:12;102064.53;;;17.39;100.00
24666;BME280;29726;53.532;-1.478;2023-02-13T16:01:06;102068.16;;;17.39;100.00
24666;BME280;29726;53.532;-1.478;2023-02-13T16:04:12;102072.56;;;17.40;100.00
24666;BME280;29726;53.532;-1.478;2023-02-13T16:06:57;102059.22;;;17.32;100.00
24666;BME280;29726;53.532;-1.478;2023-02-13T16:09:41;102054.22;;;17.27;100.00
24666;BME280;29726;53.532;-1.478;2023-02-13T16:12:27;102079.63;;;17.36;100.00
24666;BME280;29726;53.532;-1.478;2023-02-13T16:15:15;102072.41;;;17.35;100.00
24666;BME280;29726;53.532;-1.478;2023-02-13T16:18:00;102045.91;;;17.23;100.00
24666;BME280;29726;53.532;-1.478;2023-02-13T16:20:52;102056.56;;;17.28;100.00
24666;BME280;29726;53.532;-1.478;2023-02-13T16:23:37;102054.06;;;17.21;100.00
24666;BME280;29726;53.532;-1.478;2023-02-13T16:26:22;102068.19;;;17.30;100.00
24666;BME280;29726;53.532;-1.478;2023-02-13T16:29:14;102057.03;;;17.27;100.00
24666;BME280;29726;53.532;-1.478;2023-02-13T16:32:04;102053.16;;;17.15;100.00
24666;BME280;29726;53.532;-1.478;2023-02-13T16:34:51;102065.22;;;17.25;100.00
24666;BME280;29726;53.532;-1.478;2023-02-13T16:37:52;102068.38;;;17.18;100.00
24666;BME280;29726;53.532;-1.478;2023-02-13T16:40:41;102076.66;;;17.21;100.00
24666;BME280;29726;53.532;-1.478;2023-02-13T16:51:55;102076.69;;;17.12;100.00